This is the latest recevied weather packets stored in our database for station/object N8TWM-13. If no packets are shown the sender has not sent any weather packets the latest 1 day(s).
| Time | Temp. | Humidity | Pressure | Rain* | Wind** | Luminosity | Snow |
|---|---|---|---|---|---|---|---|
| 1777992946 | 19.44° C | 64% | 1007.2 hPa | 0 mm | 2.24 m/s, 222° | 703 W/m² | - |
| 1777992644 | 19.44° C | 67% | 1007.2 hPa | 0 mm | 0.45 m/s, 230° | 652 W/m² | - |
| 1777992342 | 18.89° C | 68% | 1007 hPa | 0 mm | 0.89 m/s, 221° | 618 W/m² | - |
| 1777992039 | 19.44° C | 67% | 1007.1 hPa | 0 mm | 1.79 m/s, 222° | 614 W/m² | - |
| 1777991737 | 18.89° C | 68% | 1007 hPa | 0 mm | 0.89 m/s, 215° | 668 W/m² | - |
| 1777991434 | 19.44° C | 68% | 1007 hPa | 0 mm | 0.45 m/s, 219° | 599 W/m² | - |
| 1777991131 | 18.89° C | 69% | 1007.3 hPa | 0 mm | 0.89 m/s, 232° | 571 W/m² | - |
| 1777990828 | 18.89° C | 70% | 1007.1 hPa | 0 mm | 1.34 m/s, 182° | 546 W/m² | - |
| 1777990526 | 18.89° C | 71% | 1007.5 hPa | 0 mm | 1.79 m/s, 232° | 542 W/m² | - |
| 1777990222 | 18.33° C | 71% | 1007.4 hPa | 0 mm | 2.68 m/s, 200° | 546 W/m² | - |
| 1777989919 | 18.33° C | 72% | 1007.5 hPa | 0 mm | 0.45 m/s, 248° | 507 W/m² | - |
| 1777989616 | 18.33° C | 72% | 1007.4 hPa | 0 mm | 1.79 m/s, 231° | 507 W/m² | - |
| 1777989312 | 18.33° C | 74% | 1007.5 hPa | 0 mm | 0.89 m/s, 226° | 534 W/m² | - |
| 1777989009 | 17.78° C | 74% | 1007.3 hPa | 0 mm | 1.34 m/s, 205° | 528 W/m² | - |
| 1777988705 | 17.78° C | 74% | 1007.5 hPa | 0 mm | 0.89 m/s, 270° | 286 W/m² | - |
| 1777988402 | 17.78° C | 75% | 1007.5 hPa | 0 mm | 2.24 m/s, 259° | 491 W/m² | - |
| 1777988099 | 17.78° C | 75% | 1007.5 hPa | 0 mm | 2.68 m/s, 219° | 508 W/m² | - |
| 1777987794 | 17.78° C | 75% | 1007.5 hPa | 0 mm | 0.45 m/s, 225° | 459 W/m² | - |
| 1777987491 | 17.22° C | 76% | 1007.5 hPa | 0 mm | 1.79 m/s, 235° | 447 W/m² | - |
| 1777987189 | 17.22° C | 77% | 1007.6 hPa | 0 mm | 1.34 m/s, 194° | 480 W/m² | - |
| 1777986885 | 16.67° C | 77% | 1007.8 hPa | 0 mm | 2.24 m/s, 224° | 174 W/m² | - |
| 1777986583 | 16.67° C | 79% | 1007.5 hPa | 0 mm | 0.89 m/s, 222° | 404 W/m² | - |
| 1777986281 | 16.11° C | 79% | 1007.3 hPa | 0 mm | 4.47 m/s, 219° | 378 W/m² | - |
| 1777985979 | 15.56° C | 80% | 1007.2 hPa | 0 mm | 0.89 m/s, 220° | 165 W/m² | - |
| 1777985676 | 15.56° C | 81% | 1007.2 hPa | 0 mm | 0.89 m/s, 232° | 151 W/m² | - |
* Rain latest hour (hover to see other rain measurements)
** Current wind speed in m/s (hover to see current wind gust speed)